Time;durP1;ratioP1;P1;durP2;ratioP2;P2;SDS_P1;SDS_P2;PMS_P1;PMS_P2;Temp;Humidity;BMP_temperature;BMP_pressure;BME280_temperature;BME280_humidity;BME280_pressure;Samples;Min_cycle;Max_cycle;Signal;HPM_P1;HPM_P2
2020/12/18 00:01:11;;;;;;;11.50;9.87;;;;;;;;;;5041321;28;20979;-71
2020/12/18 00:03:36;;;;;;;11.20;9.60;;;;;;;;;;5040979;28;20308;-70
2020/12/18 00:06:02;;;;;;;13.20;10.47;;;;;;;;;;5039289;28;20314;-70
2020/12/18 00:08:27;;;;;;;13.93;10.20;;;;;;;;;;5041096;28;21037;-71
2020/12/18 00:10:52;;;;;;;10.97;9.43;;;;;;;;;;5041008;28;20176;-70
2020/12/18 00:13:18;;;;;;;13.87;9.70;;;;;;;;;;5039353;28;20297;-70
2020/12/18 00:15:43;;;;;;;13.50;10.00;;;;;;;;;;5040637;28;20631;-71
2020/12/18 00:18:08;;;;;;;11.20;9.93;;;;;;;;;;5040350;28;20266;-70
2020/12/18 00:20:33;;;;;;;12.13;9.93;;;;;;;;;;5040756;28;20186;-70
2020/12/18 00:22:59;;;;;;;11.20;10.10;;;;;;;;;;5039426;28;20986;-71
2020/12/18 00:25:24;;;;;;;12.37;10.30;;;;;;;;;;5039921;28;20239;-70
2020/12/18 00:27:49;;;;;;;13.20;10.53;;;;;;;;;;5040779;28;20189;-70
2020/12/18 00:30:14;;;;;;;11.73;10.50;;;;;;;;;;5041003;28;20218;-70
2020/12/18 00:32:40;;;;;;;12.20;9.80;;;;;;;;;;5040395;28;20809;-70
2020/12/18 00:35:06;;;;;;;13.20;10.27;;;;;;;;;;5038611;28;20226;-70
2020/12/18 00:37:32;;;;;;;12.47;10.87;;;;;;;;;;5040704;28;20197;-70
2020/12/18 00:39:58;;;;;;;12.00;10.47;;;;;;;;;;5040325;28;20274;-70
2020/12/18 00:42:23;;;;;;;13.87;10.60;;;;;;;;;;5040251;28;20219;-71
2020/12/18 00:44:48;;;;;;;13.17;10.03;;;;;;;;;;5039027;28;20219;-71
2020/12/18 00:47:13;;;;;;;11.47;9.30;;;;;;;;;;5038326;28;20192;-70
2020/12/18 00:49:42;;;;;;;13.70;10.27;;;;;;;;;;5040447;28;20228;-71
2020/12/18 00:52:08;;;;;;;11.27;9.97;;;;;;;;;;5038253;28;20186;-71
2020/12/18 00:54:33;;;;;;;12.60;9.93;;;;;;;;;;5054850;28;20203;-71
2020/12/18 00:56:59;;;;;;;12.10;10.20;;;;;;;;;;5039827;28;20800;-80
2020/12/18 00:59:24;;;;;;;14.77;10.97;;;;;;;;;;5040981;28;20226;-81
2020/12/18 01:01:55;;;;;;;14.57;11.60;;;;;;;;;;5039119;28;20216;-80
2020/12/18 01:04:21;;;;;;;13.37;10.43;;;;;;;;;;5021654;28;20212;-81
2020/12/18 01:06:46;;;;;;;12.67;9.53;;;;;;;;;;5064506;28;20194;-81
2020/12/18 01:09:11;;;;;;;14.37;10.87;;;;;;;;;;5062384;28;20609;-80
2020/12/18 01:11:38;;;;;;;13.80;10.33;;;;;;;;;;5062106;28;20297;-81
2020/12/18 01:14:06;;;;;;;13.97;10.57;;;;;;;;;;5051127;28;20248;-80
2020/12/18 01:16:37;;;;;;;13.70;10.40;;;;;;;;;;5037854;28;20747;-80
2020/12/18 01:19:03;;;;;;;12.27;10.90;;;;;;;;;;5040899;28;20208;-80
2020/12/18 01:21:34;;;;;;;13.37;11.43;;;;;;;;;;5041208;28;20183;-80
2020/12/18 01:23:59;;;;;;;12.47;10.83;;;;;;;;;;5039424;28;20208;-79
2020/12/18 01:26:25;;;;;;;14.73;10.93;;;;;;;;;;5040697;28;20189;-79
2020/12/18 01:28:51;;;;;;;12.90;10.97;;;;;;;;;;5047423;28;20208;-79
2020/12/18 01:31:17;;;;;;;13.73;10.80;;;;;;;;;;5077730;28;20184;-79
2020/12/18 01:33:45;;;;;;;13.03;11.13;;;;;;;;;;5073606;28;20182;-79
2020/12/18 01:36:20;;;;;;;14.80;11.10;;;;;;;;;;5073061;28;20284;-81
2020/12/18 01:38:46;;;;;;;15.37;11.90;;;;;;;;;;5071064;28;20725;-80
2020/12/18 01:41:11;;;;;;;15.47;11.87;;;;;;;;;;5038175;28;20958;-80
2020/12/18 01:43:37;;;;;;;13.00;10.63;;;;;;;;;;5071934;28;20202;-80
2020/12/18 01:46:11;;;;;;;12.93;10.90;;;;;;;;;;5037210;28;20274;-80
2020/12/18 01:48:39;;;;;;;14.33;11.43;;;;;;;;;;5046444;28;20778;-80
2020/12/18 01:51:09;;;;;;;16.27;12.17;;;;;;;;;;5038439;28;20620;-81
2020/12/18 01:53:35;;;;;;;14.57;10.93;;;;;;;;;;5038590;28;20214;-81
2020/12/18 01:56:24;;;;;;;13.23;10.97;;;;;;;;;;5024785;28;20196;-81
2020/12/18 01:58:58;;;;;;;12.83;11.00;;;;;;;;;;5038567;28;20860;-81
2020/12/18 02:01:44;;;;;;;15.50;11.43;;;;;;;;;;5032584;28;20234;-81
2020/12/18 02:04:22;;;;;;;16.73;12.37;;;;;;;;;;5046178;28;20214;-81
2020/12/18 02:06:53;;;;;;;16.57;11.63;;;;;;;;;;5039848;28;20176;-81
2020/12/18 02:09:22;;;;;;;15.17;10.73;;;;;;;;;;5038054;28;20211;-81
2020/12/18 02:11:52;;;;;;;13.77;10.97;;;;;;;;;;5038580;28;20190;-81
2020/12/18 02:14:17;;;;;;;14.50;11.00;;;;;;;;;;5038544;28;20194;-81
2020/12/18 02:16:48;;;;;;;15.13;10.87;;;;;;;;;;5038198;28;20176;-81
2020/12/18 02:19:24;;;;;;;14.40;11.20;;;;;;;;;;5038166;28;20204;-81
2020/12/18 02:21:49;;;;;;;14.83;12.30;;;;;;;;;;5035105;28;20188;-81
2020/12/18 02:24:27;;;;;;;15.10;12.13;;;;;;;;;;5038406;28;20221;-80
2020/12/18 02:26:56;;;;;;;14.53;12.17;;;;;;;;;;5038455;28;20211;-80
2020/12/18 02:29:22;;;;;;;15.03;11.90;;;;;;;;;;5038258;28;20204;-81
2020/12/18 02:31:57;;;;;;;13.67;11.80;;;;;;;;;;5034719;28;20202;-81
2020/12/18 02:34:34;;;;;;;15.70;12.03;;;;;;;;;;5046029;28;20664;-80
2020/12/18 02:37:05;;;;;;;15.47;11.37;;;;;;;;;;5037924;28;20888;-81
2020/12/18 02:39:34;;;;;;;14.40;11.00;;;;;;;;;;5037198;28;20216;-80
2020/12/18 02:42:04;;;;;;;14.83;11.33;;;;;;;;;;5063273;28;21034;-80
2020/12/18 02:44:47;;;;;;;15.90;12.00;;;;;;;;;;5031071;28;20219;-81
2020/12/18 02:47:32;;;;;;;14.50;11.60;;;;;;;;;;5029157;28;20206;-80
2020/12/18 02:50:00;;;;;;;16.63;12.40;;;;;;;;;;5071301;28;20214;-80
2020/12/18 02:52:38;;;;;;;15.60;11.90;;;;;;;;;;5037796;28;20226;-80
2020/12/18 02:55:24;;;;;;;16.07;11.60;;;;;;;;;;5038933;28;20693;-80
2020/12/18 02:58:10;;;;;;;15.40;11.60;;;;;;;;;;5041146;28;20566;-80
2020/12/18 03:00:44;;;;;;;14.03;12.30;;;;;;;;;;5050487;28;20194;-80
2020/12/18 03:03:10;;;;;;;12.87;11.03;;;;;;;;;;5075213;28;20196;-80
2020/12/18 03:05:36;;;;;;;16.20;12.03;;;;;;;;;;5067917;28;20222;-80
2020/12/18 03:08:11;;;;;;;13.37;11.50;;;;;;;;;;5057902;28;20194;-80
2020/12/18 03:10:39;;;;;;;13.60;11.13;;;;;;;;;;5074789;28;20240;-80
2020/12/18 03:13:05;;;;;;;17.93;12.50;;;;;;;;;;5075106;28;20194;-79
2020/12/18 03:15:31;;;;;;;13.87;11.17;;;;;;;;;;5040402;28;20280;-80
2020/12/18 03:18:03;;;;;;;15.93;12.03;;;;;;;;;;5042942;28;20481;-78
2020/12/18 03:20:30;;;;;;;13.93;12.10;;;;;;;;;;5071796;28;20192;-79
2020/12/18 03:23:14;;;;;;;13.70;11.50;;;;;;;;;;5041123;28;20239;-81
2020/12/18 03:26:09;;;;;;;14.43;11.53;;;;;;;;;;5032931;28;20284;-81
2020/12/18 03:28:42;;;;;;;13.07;11.17;;;;;;;;;;5068579;28;20299;-79
2020/12/18 03:31:09;;;;;;;14.00;11.80;;;;;;;;;;5040674;28;20192;-80
2020/12/18 03:33:35;;;;;;;13.87;11.37;;;;;;;;;;5041215;28;20188;-79
2020/12/18 03:36:15;;;;;;;13.53;12.10;;;;;;;;;;5042671;28;20333;-82
2020/12/18 03:38:40;;;;;;;15.93;11.80;;;;;;;;;;5041371;28;20368;-80
2020/12/18 03:41:06;;;;;;;15.60;11.87;;;;;;;;;;5040742;28;20196;-79
2020/12/18 03:43:33;;;;;;;14.87;13.03;;;;;;;;;;5057596;28;20731;-80
2020/12/18 03:45:59;;;;;;;17.63;12.90;;;;;;;;;;5057335;28;20191;-81
2020/12/18 03:48:32;;;;;;;15.47;12.23;;;;;;;;;;5048562;28;20877;-80
2020/12/18 03:51:24;;;;;;;17.87;11.93;;;;;;;;;;5041670;28;20670;-80
2020/12/18 03:53:49;;;;;;;16.40;11.90;;;;;;;;;;5074287;28;20191;-80
2020/12/18 03:56:32;;;;;;;14.30;11.23;;;;;;;;;;5040912;28;20213;-80
2020/12/18 03:59:10;;;;;;;14.63;12.17;;;;;;;;;;5040490;28;20617;-81
2020/12/18 04:01:58;;;;;;;15.53;12.50;;;;;;;;;;5037580;28;20269;-80
2020/12/18 04:04:23;;;;;;;15.63;11.80;;;;;;;;;;5040435;28;20246;-80
2020/12/18 04:06:52;;;;;;;17.40;11.60;;;;;;;;;;5040061;28;20184;-80
2020/12/18 04:09:18;;;;;;;17.20;12.60;;;;;;;;;;5039417;28;20864;-80
2020/12/18 04:11:49;;;;;;;17.93;12.50;;;;;;;;;;5040142;28;20182;-80
2020/12/18 04:14:35;;;;;;;14.37;11.63;;;;;;;;;;5040742;28;20197;-80
2020/12/18 04:17:08;;;;;;;14.40;11.97;;;;;;;;;;5039897;28;20192;-81
2020/12/18 04:19:34;;;;;;;17.27;11.97;;;;;;;;;;5040306;28;20213;-80
2020/12/18 04:21:59;;;;;;;14.43;12.37;;;;;;;;;;5039888;28;20194;-80
2020/12/18 04:24:51;;;;;;;14.67;11.77;;;;;;;;;;5026882;28;20222;-80
2020/12/18 04:27:19;;;;;;;15.67;11.40;;;;;;;;;;5038055;28;20182;-81
2020/12/18 04:29:44;;;;;;;17.30;11.90;;;;;;;;;;5068813;28;20268;-80
2020/12/18 04:32:12;;;;;;;15.97;11.53;;;;;;;;;;5069468;28;20221;-80
2020/12/18 04:34:39;;;;;;;14.57;12.23;;;;;;;;;;5039843;28;20195;-80
2020/12/18 04:37:17;;;;;;;14.33;11.70;;;;;;;;;;5039316;28;20274;-80
2020/12/18 04:40:01;;;;;;;13.90;11.37;;;;;;;;;;5041195;28;20800;-80
2020/12/18 04:42:32;;;;;;;14.53;11.20;;;;;;;;;;5039303;28;20214;-80
2020/12/18 04:44:58;;;;;;;16.27;11.37;;;;;;;;;;5039106;28;21003;-80
2020/12/18 04:47:23;;;;;;;14.93;12.60;;;;;;;;;;5039455;28;20190;-80
2020/12/18 04:49:50;;;;;;;17.63;11.63;;;;;;;;;;5055804;28;20940;-80
2020/12/18 04:52:22;;;;;;;15.50;12.77;;;;;;;;;;5055761;28;20200;-80
2020/12/18 04:54:54;;;;;;;16.63;12.33;;;;;;;;;;5040841;28;20198;-80
2020/12/18 04:57:39;;;;;;;16.30;12.10;;;;;;;;;;5028112;28;20211;-80
2020/12/18 05:00:08;;;;;;;14.07;11.03;;;;;;;;;;5049915;28;20215;-80
2020/12/18 05:03:09;;;;;;;15.93;12.97;;;;;;;;;;5014756;28;20204;-80
2020/12/18 05:05:35;;;;;;;17.60;13.00;;;;;;;;;;5029906;28;20227;-81
2020/12/18 05:08:08;;;;;;;15.57;12.30;;;;;;;;;;5040370;28;20195;-81
2020/12/18 05:10:33;;;;;;;15.80;12.63;;;;;;;;;;5039040;28;20187;-81
2020/12/18 05:13:11;;;;;;;15.57;12.37;;;;;;;;;;5038649;28;20186;-81
2020/12/18 05:15:44;;;;;;;17.17;12.13;;;;;;;;;;5038915;28;20691;-81
2020/12/18 05:18:49;;;;;;;17.80;13.40;;;;;;;;;;5005773;28;20228;-81
2020/12/18 05:21:30;;;;;;;16.33;12.27;;;;;;;;;;5012794;28;20194;-80
2020/12/18 05:23:57;;;;;;;15.17;11.60;;;;;;;;;;5021537;28;20320;-81
2020/12/18 05:26:31;;;;;;;17.37;13.67;;;;;;;;;;5046999;28;20839;-81
2020/12/18 05:29:05;;;;;;;15.77;12.40;;;;;;;;;;5054775;28;20231;-82
2020/12/18 05:31:34;;;;;;;16.80;13.07;;;;;;;;;;5054493;28;20193;-82
2020/12/18 05:34:26;;;;;;;20.93;13.00;;;;;;;;;;5036971;28;20221;-81
2020/12/18 05:37:00;;;;;;;16.60;12.57;;;;;;;;;;5045030;28;20721;-81
2020/12/18 05:39:48;;;;;;;15.17;12.33;;;;;;;;;;5046677;28;20652;-81
2020/12/18 05:42:19;;;;;;;17.17;13.17;;;;;;;;;;5029227;28;20774;-82
2020/12/18 05:44:44;;;;;;;15.50;11.77;;;;;;;;;;5038933;28;20301;-76
2020/12/18 05:47:32;;;;;;;14.47;11.67;;;;;;;;;;5046232;28;20185;-77
2020/12/18 05:49:57;;;;;;;16.20;11.43;;;;;;;;;;5077127;28;20216;-76
2020/12/18 05:52:27;;;;;;;14.60;11.87;;;;;;;;;;5040354;28;20189;-77
2020/12/18 05:55:10;;;;;;;18.10;11.50;;;;;;;;;;5029185;28;20199;-82
2020/12/18 05:57:45;;;;;;;12.30;10.03;;;;;;;;;;5031979;28;20403;-71
2020/12/18 06:00:17;;;;;;;15.13;12.00;;;;;;;;;;5071119;28;20607;-85
2020/12/18 06:02:53;;;;;;;15.00;12.37;;;;;;;;;;5032218;28;20213;-84
2020/12/18 06:05:26;;;;;;;13.87;12.37;;;;;;;;;;5038451;28;20734;-85
2020/12/18 06:08:14;;;;;;;14.13;12.67;;;;;;;;;;5038563;28;20228;-80
2020/12/18 06:10:41;;;;;;;13.50;11.80;;;;;;;;;;5038669;28;20272;-79
2020/12/18 06:13:22;;;;;;;15.10;12.83;;;;;;;;;;5037538;28;20216;-80
2020/12/18 06:16:03;;;;;;;14.97;13.27;;;;;;;;;;5034612;28;20196;-78
2020/12/18 06:18:54;;;;;;;14.60;12.90;;;;;;;;;;5031372;28;20301;-79
2020/12/18 06:21:29;;;;;;;14.60;11.90;;;;;;;;;;5044435;28;20306;-81
2020/12/18 06:23:55;;;;;;;15.33;11.90;;;;;;;;;;5044562;28;20651;-79
2020/12/18 06:26:46;;;;;;;13.47;11.27;;;;;;;;;;5039475;28;20206;-80
2020/12/18 06:29:21;;;;;;;15.77;11.67;;;;;;;;;;5038238;28;20201;-81
2020/12/18 06:32:19;;;;;;;13.77;11.10;;;;;;;;;;5027594;28;20198;-80
2020/12/18 06:35:17;;;;;;;14.27;11.40;;;;;;;;;;5040586;28;20216;-77
2020/12/18 06:37:49;;;;;;;13.53;10.83;;;;;;;;;;5037696;28;20705;-81
2020/12/18 06:40:41;;;;;;;14.93;12.33;;;;;;;;;;5043057;28;20329;-81
2020/12/18 06:43:10;;;;;;;12.40;11.07;;;;;;;;;;5044223;28;20976;-79
2020/12/18 06:46:04;;;;;;;14.93;10.33;;;;;;;;;;5050763;28;20207;-80
2020/12/18 06:48:50;;;;;;;14.07;11.73;;;;;;;;;;5033425;28;20226;-76
2020/12/18 06:51:34;;;;;;;13.20;11.20;;;;;;;;;;5026545;28;20307;-77
2020/12/18 06:54:16;;;;;;;15.23;11.43;;;;;;;;;;5052213;28;20193;-80
2020/12/18 06:56:46;;;;;;;14.30;11.43;;;;;;;;;;5033499;28;20188;-80
2020/12/18 06:59:25;;;;;;;15.00;10.93;;;;;;;;;;5037177;28;20213;-74
2020/12/18 07:01:50;;;;;;;14.97;12.13;;;;;;;;;;5031021;28;20743;-79
2020/12/18 07:04:20;;;;;;;13.03;11.73;;;;;;;;;;5040821;28;21023;-79
2020/12/18 07:06:45;;;;;;;13.17;11.37;;;;;;;;;;5043694;28;20705;-80
2020/12/18 07:09:11;;;;;;;13.47;11.47;;;;;;;;;;5043858;28;20196;-77
2020/12/18 07:11:37;;;;;;;14.60;11.23;;;;;;;;;;5042314;28;20410;-77
2020/12/18 07:14:02;;;;;;;15.30;12.60;;;;;;;;;;5042087;28;20190;-78
2020/12/18 07:16:29;;;;;;;14.77;12.30;;;;;;;;;;5043007;28;20679;-79
2020/12/18 07:18:58;;;;;;;15.10;11.87;;;;;;;;;;5042676;28;20204;-79
2020/12/18 07:21:23;;;;;;;13.90;11.97;;;;;;;;;;5040534;28;21152;-79
2020/12/18 07:23:49;;;;;;;18.40;12.80;;;;;;;;;;5035354;28;20250;-78
2020/12/18 07:26:15;;;;;;;13.67;11.70;;;;;;;;;;5041136;28;20186;-79
2020/12/18 07:28:40;;;;;;;15.80;12.00;;;;;;;;;;5036155;28;20236;-78
2020/12/18 07:31:14;;;;;;;13.50;11.47;;;;;;;;;;5043077;28;20195;-63
2020/12/18 07:33:39;;;;;;;16.20;11.60;;;;;;;;;;5042362;28;20190;-65
2020/12/18 07:36:05;;;;;;;13.33;11.23;;;;;;;;;;5055545;28;20201;-65
2020/12/18 07:38:34;;;;;;;57.67;39.03;;;;;;;;;;5042634;28;20297;-64
2020/12/18 07:41:03;;;;;;;14.77;10.77;;;;;;;;;;5042418;28;20227;-63
2020/12/18 07:43:31;;;;;;;14.30;11.75;;;;;;;;;;5040622;28;20593;-64
2020/12/18 07:45:57;;;;;;;14.87;12.13;;;;;;;;;;5040759;28;20218;-64
2020/12/18 07:48:33;;;;;;;14.23;12.70;;;;;;;;;;5042216;28;20852;-64
2020/12/18 07:50:59;;;;;;;15.83;11.57;;;;;;;;;;5057955;28;20282;-65
2020/12/18 07:53:25;;;;;;;16.57;11.97;;;;;;;;;;5034259;28;20186;-65
2020/12/18 07:56:08;;;;;;;14.30;12.77;;;;;;;;;;5041448;28;20193;-65
2020/12/18 07:58:34;;;;;;;14.93;12.13;;;;;;;;;;5042259;28;20217;-63
2020/12/18 08:01:03;;;;;;;15.87;11.67;;;;;;;;;;5042315;28;20186;-64
2020/12/18 08:03:28;;;;;;;15.93;10.83;;;;;;;;;;5038939;28;20360;-64
2020/12/18 08:05:54;;;;;;;16.43;12.50;;;;;;;;;;5035913;28;20240;-64
2020/12/18 08:08:19;;;;;;;16.97;13.47;;;;;;;;;;5042095;28;20261;-63
2020/12/18 08:10:45;;;;;;;14.27;12.07;;;;;;;;;;5041821;28;20263;-65
2020/12/18 08:13:10;;;;;;;13.67;12.27;;;;;;;;;;5040882;28;20252;-64
2020/12/18 08:15:35;;;;;;;16.20;12.80;;;;;;;;;;5040968;28;20187;-65
2020/12/18 08:18:01;;;;;;;15.97;12.43;;;;;;;;;;5033137;28;20628;-68
2020/12/18 08:20:26;;;;;;;16.73;10.67;;;;;;;;;;5039112;28;20217;-65
2020/12/18 08:22:51;;;;;;;12.77;11.30;;;;;;;;;;5034537;28;20208;-64
2020/12/18 08:25:17;;;;;;;15.87;12.00;;;;;;;;;;5035979;28;20202;-66
2020/12/18 08:27:47;;;;;;;15.23;12.17;;;;;;;;;;5038697;28;20912;-66
2020/12/18 08:30:14;;;;;;;16.60;12.17;;;;;;;;;;5033914;28;20378;-66
2020/12/18 08:32:40;;;;;;;15.33;10.83;;;;;;;;;;5036214;28;20189;-66
2020/12/18 08:35:07;;;;;;;13.53;11.90;;;;;;;;;;5052828;28;20189;-63
2020/12/18 08:37:33;;;;;;;16.80;12.27;;;;;;;;;;5040000;28;20197;-67
2020/12/18 08:39:58;;;;;;;16.40;12.20;;;;;;;;;;5038406;28;20311;-64
2020/12/18 08:42:23;;;;;;;14.77;11.80;;;;;;;;;;5027081;28;21070;-65
2020/12/18 08:44:49;;;;;;;14.53;12.47;;;;;;;;;;5061720;28;20216;-65
2020/12/18 08:47:18;;;;;;;14.47;11.03;;;;;;;;;;5035737;28;20796;-65
2020/12/18 08:49:44;;;;;;;12.83;10.83;;;;;;;;;;5040814;28;20209;-65
2020/12/18 08:52:09;;;;;;;13.33;11.07;;;;;;;;;;5039154;28;21010;-65
2020/12/18 08:54:37;;;;;;;13.70;10.87;;;;;;;;;;5040685;28;20189;-65
2020/12/18 08:57:08;;;;;;;14.07;10.03;;;;;;;;;;5040313;28;21091;-64
2020/12/18 08:59:33;;;;;;;13.83;10.70;;;;;;;;;;5033687;28;20371;-65
2020/12/18 09:01:59;;;;;;;11.33;10.13;;;;;;;;;;5054763;28;20198;-66
2020/12/18 09:04:24;;;;;;;12.53;11.23;;;;;;;;;;5040119;28;20215;-65
2020/12/18 09:06:51;;;;;;;14.93;11.97;;;;;;;;;;5040526;28;20186;-66
2020/12/18 09:09:17;;;;;;;13.50;11.33;;;;;;;;;;5033203;28;20202;-66
2020/12/18 09:11:45;;;;;;;15.57;12.37;;;;;;;;;;5040656;28;20228;-66
2020/12/18 09:14:30;;;;;;;14.10;11.80;;;;;;;;;;5040791;28;20196;-66
2020/12/18 09:16:56;;;;;;;15.67;11.97;;;;;;;;;;5035269;28;20255;-66
2020/12/18 09:19:22;;;;;;;13.07;11.77;;;;;;;;;;5040565;28;20652;-66
2020/12/18 09:21:47;;;;;;;14.97;11.67;;;;;;;;;;5048767;28;20193;-66
2020/12/18 09:24:16;;;;;;;14.13;11.50;;;;;;;;;;5042501;28;20342;-64
2020/12/18 09:26:41;;;;;;;13.83;11.63;;;;;;;;;;5033892;28;20191;-63
2020/12/18 09:29:14;;;;;;;14.07;12.23;;;;;;;;;;5036519;28;20199;-64
2020/12/18 09:31:39;;;;;;;13.20;11.50;;;;;;;;;;5038457;28;20176;-64
2020/12/18 09:34:16;;;;;;;12.33;10.90;;;;;;;;;;5041279;28;20251;-64
2020/12/18 09:36:42;;;;;;;13.77;10.53;;;;;;;;;;5033934;28;20558;-63
2020/12/18 09:39:07;;;;;;;15.13;11.33;;;;;;;;;;5039619;28;20210;-64
2020/12/18 09:41:33;;;;;;;12.57;10.30;;;;;;;;;;5039906;28;20712;-65
2020/12/18 09:43:58;;;;;;;14.90;11.32;;;;;;;;;;5071550;28;20216;-64
2020/12/18 09:46:23;;;;;;;13.85;11.10;;;;;;;;;;5032470;28;20262;-66
2020/12/18 09:48:49;;;;;;;12.68;11.25;;;;;;;;;;5054527;28;20215;-65
2020/12/18 09:51:15;;;;;;;11.30;9.90;;;;;;;;;;5040678;28;20716;-65
2020/12/18 09:53:40;;;;;;;10.65;9.40;;;;;;;;;;5034750;28;20194;-65
2020/12/18 09:56:09;;;;;;;13.68;10.55;;;;;;;;;;5040576;28;20270;-64
2020/12/18 09:58:34;;;;;;;12.25;9.70;;;;;;;;;;5038378;28;20214;-67
2020/12/18 10:01:00;;;;;;;13.65;9.85;;;;;;;;;;5039696;28;20682;-65
2020/12/18 10:03:25;;;;;;;13.20;8.77;;;;;;;;;;5033058;28;20793;-65
2020/12/18 10:05:50;;;;;;;9.05;7.45;;;;;;;;;;5039564;28;20218;-67
2020/12/18 10:08:17;;;;;;;10.30;9.13;;;;;;;;;;5039204;28;20191;-65
2020/12/18 10:10:42;;;;;;;10.85;8.68;;;;;;;;;;5039948;28;20191;-65
2020/12/18 10:13:07;;;;;;;10.88;8.80;;;;;;;;;;5071890;28;20281;-67
2020/12/18 10:15:33;;;;;;;12.00;9.57;;;;;;;;;;5032439;28;20498;-64
2020/12/18 10:17:59;;;;;;;12.57;10.27;;;;;;;;;;5039129;28;20191;-64
2020/12/18 10:20:24;;;;;;;10.55;8.35;;;;;;;;;;5053984;28;20213;-64
2020/12/18 10:22:49;;;;;;;10.50;8.82;;;;;;;;;;5039157;28;20676;-64
2020/12/18 10:25:15;;;;;;;11.35;8.57;;;;;;;;;;5038061;28;20207;-64
2020/12/18 10:27:41;;;;;;;8.93;6.68;;;;;;;;;;5032732;28;20279;-66
2020/12/18 10:30:07;;;;;;;11.02;8.65;;;;;;;;;;5037089;28;20211;-63
2020/12/18 10:32:33;;;;;;;9.60;8.05;;;;;;;;;;5038414;28;20765;-64
2020/12/18 10:34:59;;;;;;;12.07;7.22;;;;;;;;;;5038927;28;20867;-64
2020/12/18 10:37:25;;;;;;;10.77;8.32;;;;;;;;;;5039093;28;20198;-64
2020/12/18 10:39:50;;;;;;;12.70;7.85;;;;;;;;;;5034597;28;20222;-65
2020/12/18 10:42:16;;;;;;;10.27;7.25;;;;;;;;;;5032923;28;20437;-65
2020/12/18 10:44:41;;;;;;;10.30;7.47;;;;;;;;;;5039926;28;20215;-65
2020/12/18 10:47:06;;;;;;;10.43;7.20;;;;;;;;;;5038748;28;20195;-65
2020/12/18 10:49:32;;;;;;;8.65;6.13;;;;;;;;;;5040298;28;20243;-64
2020/12/18 10:51:57;;;;;;;9.40;6.93;;;;;;;;;;5039947;28;20195;-64
2020/12/18 10:54:23;;;;;;;7.40;5.93;;;;;;;;;;5036044;28;20328;-65
2020/12/18 10:56:50;;;;;;;9.82;6.13;;;;;;;;;;5039498;28;20199;-67
2020/12/18 10:59:15;;;;;;;11.48;7.32;;;;;;;;;;5039040;28;20215;-65
2020/12/18 11:01:41;;;;;;;8.82;6.43;;;;;;;;;;5039278;28;20187;-64
2020/12/18 11:04:06;;;;;;;6.47;5.65;;;;;;;;;;5039824;28;20215;-65
2020/12/18 11:06:32;;;;;;;7.63;6.03;;;;;;;;;;5038829;28;20233;-65
2020/12/18 11:08:57;;;;;;;10.05;6.50;;;;;;;;;;5039422;28;20226;-67
2020/12/18 11:11:23;;;;;;;8.25;6.63;;;;;;;;;;5038924;28;20214;-64
2020/12/18 11:13:48;;;;;;;10.13;6.90;;;;;;;;;;5039571;28;20202;-66
2020/12/18 11:16:15;;;;;;;6.45;5.00;;;;;;;;;;5038001;28;20195;-64
2020/12/18 11:18:40;;;;;;;8.05;5.43;;;;;;;;;;5032643;28;20204;-65
2020/12/18 11:21:07;;;;;;;9.98;5.50;;;;;;;;;;5041623;28;20800;-65
2020/12/18 11:23:32;;;;;;;9.40;5.68;;;;;;;;;;5042808;28;20911;-65
2020/12/18 11:25:57;;;;;;;7.90;5.72;;;;;;;;;;5036233;28;20257;-64
2020/12/18 11:28:23;;;;;;;9.30;6.50;;;;;;;;;;5042117;28;20249;-63
2020/12/18 11:30:49;;;;;;;6.10;5.13;;;;;;;;;;5042134;28;20730;-73
2020/12/18 11:33:14;;;;;;;9.35;5.70;;;;;;;;;;5042327;28;20183;-66
2020/12/18 11:35:39;;;;;;;6.68;5.55;;;;;;;;;;5041834;28;20535;-65
2020/12/18 11:38:05;;;;;;;6.20;5.30;;;;;;;;;;5042281;28;20277;-62
2020/12/18 11:40:30;;;;;;;9.75;5.60;;;;;;;;;;5042743;28;20261;-65
2020/12/18 11:42:55;;;;;;;11.32;6.38;;;;;;;;;;5042440;28;20200;-66
2020/12/18 11:45:21;;;;;;;8.65;5.40;;;;;;;;;;5039741;28;20199;-64
2020/12/18 11:47:46;;;;;;;8.23;5.97;;;;;;;;;;5037120;28;20442;-65
2020/12/18 11:50:12;;;;;;;9.43;5.93;;;;;;;;;;5042713;28;20212;-64
2020/12/18 11:52:37;;;;;;;9.75;5.40;;;;;;;;;;5033716;28;20226;-65
2020/12/18 11:55:03;;;;;;;6.80;5.05;;;;;;;;;;5040164;28;20207;-65
2020/12/18 11:57:28;;;;;;;7.75;3.92;;;;;;;;;;5041255;28;20202;-63
2020/12/18 11:59:53;;;;;;;5.60;3.83;;;;;;;;;;5036414;28;20261;-64
2020/12/18 12:02:19;;;;;;;6.40;4.25;;;;;;;;;;5040656;28;20184;-65
2020/12/18 12:04:44;;;;;;;10.32;4.82;;;;;;;;;;5042503;28;20739;-65
2020/12/18 12:07:09;;;;;;;7.65;5.60;;;;;;;;;;5041343;28;20195;-65
2020/12/18 12:09:35;;;;;;;10.38;5.80;;;;;;;;;;5042548;28;20770;-64
2020/12/18 12:12:00;;;;;;;9.63;6.63;;;;;;;;;;5042253;28;20645;-64
2020/12/18 12:14:25;;;;;;;8.18;5.57;;;;;;;;;;5041606;28;20215;-66
2020/12/18 12:16:51;;;;;;;7.03;6.25;;;;;;;;;;5041509;28;20188;-64
2020/12/18 12:19:16;;;;;;;7.95;6.03;;;;;;;;;;5041212;28;20617;-64
2020/12/18 12:21:42;;;;;;;9.38;6.90;;;;;;;;;;5040279;28;20183;-65
2020/12/18 12:24:07;;;;;;;9.40;6.13;;;;;;;;;;5041530;28;20564;-65
2020/12/18 12:26:32;;;;;;;9.35;6.50;;;;;;;;;;5036325;28;20189;-64
2020/12/18 12:28:58;;;;;;;8.05;6.50;;;;;;;;;;5037002;28;20731;-65
2020/12/18 12:31:23;;;;;;;6.60;5.70;;;;;;;;;;5040909;28;20206;-64
2020/12/18 12:33:49;;;;;;;10.35;6.07;;;;;;;;;;5041032;28;20728;-73
2020/12/18 12:36:21;;;;;;;8.55;5.55;;;;;;;;;;5040421;28;20705;-64
2020/12/18 12:38:46;;;;;;;8.50;6.15;;;;;;;;;;5035003;28;20298;-64
2020/12/18 12:41:12;;;;;;;10.00;7.10;;;;;;;;;;5041127;28;20295;-63
2020/12/18 12:43:37;;;;;;;10.80;6.70;;;;;;;;;;5041052;28;20191;-64
2020/12/18 12:46:02;;;;;;;11.02;6.40;;;;;;;;;;5054706;28;20211;-64
2020/12/18 12:48:27;;;;;;;7.63;6.22;;;;;;;;;;5041044;28;20191;-64
2020/12/18 12:50:53;;;;;;;8.13;6.18;;;;;;;;;;5041154;28;20188;-64
2020/12/18 12:53:18;;;;;;;6.82;6.10;;;;;;;;;;5033660;28;20181;-64
2020/12/18 12:55:46;;;;;;;10.10;5.88;;;;;;;;;;5040131;28;20641;-65
2020/12/18 12:58:12;;;;;;;7.07;5.88;;;;;;;;;;5039749;28;20195;-67
2020/12/18 13:00:38;;;;;;;8.25;6.00;;;;;;;;;;5040136;28;20346;-66
2020/12/18 13:03:03;;;;;;;10.27;5.97;;;;;;;;;;5040845;28;20180;-68
2020/12/18 13:05:28;;;;;;;9.73;4.90;;;;;;;;;;5037882;28;20208;-64
2020/12/18 13:07:54;;;;;;;6.43;4.85;;;;;;;;;;5040617;28;20272;-64
2020/12/18 13:10:20;;;;;;;9.23;4.68;;;;;;;;;;5033848;28;20287;-64
2020/12/18 13:12:45;;;;;;;8.93;5.57;;;;;;;;;;5041049;28;20836;-64
2020/12/18 13:15:10;;;;;;;4.85;3.60;;;;;;;;;;5034416;28;20252;-64
2020/12/18 13:17:36;;;;;;;7.25;4.28;;;;;;;;;;5040494;28;20191;-63
2020/12/18 13:20:01;;;;;;;7.03;5.38;;;;;;;;;;5039876;28;20211;-63
2020/12/18 13:22:27;;;;;;;9.02;4.88;;;;;;;;;;5039031;28;20563;-64
2020/12/18 13:24:52;;;;;;;6.60;4.60;;;;;;;;;;5040214;28;20203;-64
2020/12/18 13:27:17;;;;;;;5.45;4.10;;;;;;;;;;5040406;28;20263;-65
2020/12/18 13:29:43;;;;;;;10.18;4.50;;;;;;;;;;5040418;28;20214;-64
2020/12/18 13:32:08;;;;;;;8.07;4.80;;;;;;;;;;5039244;28;20183;-65
2020/12/18 13:34:34;;;;;;;7.80;5.22;;;;;;;;;;5040388;28;20271;-64
2020/12/18 13:37:02;;;;;;;5.97;4.18;;;;;;;;;;5055080;28;20373;-65
2020/12/18 13:39:28;;;;;;;8.38;5.20;;;;;;;;;;5033922;28;20281;-65
2020/12/18 13:41:56;;;;;;;11.50;6.50;;;;;;;;;;5040005;28;20731;-64
2020/12/18 13:44:21;;;;;;;7.85;6.28;;;;;;;;;;5039108;28;20245;-65
2020/12/18 13:46:46;;;;;;;9.85;6.05;;;;;;;;;;5039697;28;20195;-66
2020/12/18 13:49:12;;;;;;;8.20;5.95;;;;;;;;;;5039945;28;20211;-65
2020/12/18 13:51:37;;;;;;;8.05;6.10;;;;;;;;;;5039976;28;20203;-66
2020/12/18 13:54:02;;;;;;;8.75;6.03;;;;;;;;;;5033876;28;20224;-66
2020/12/18 13:56:28;;;;;;;10.10;6.13;;;;;;;;;;5070996;28;20187;-64
2020/12/18 13:58:55;;;;;;;9.30;6.35;;;;;;;;;;5037926;28;20195;-66
2020/12/18 14:01:21;;;;;;;8.65;5.78;;;;;;;;;;5039346;28;21020;-65
2020/12/18 14:03:47;;;;;;;8.35;5.95;;;;;;;;;;5040028;28;20278;-65
2020/12/18 14:06:16;;;;;;;9.38;5.63;;;;;;;;;;5038824;28;20238;-68
2020/12/18 14:08:41;;;;;;;8.20;6.47;;;;;;;;;;5040610;28;20237;-66
2020/12/18 14:11:06;;;;;;;8.93;6.40;;;;;;;;;;5038288;28;20191;-65
2020/12/18 14:13:31;;;;;;;9.65;7.30;;;;;;;;;;5039546;28;20190;-65
2020/12/18 14:15:57;;;;;;;9.70;6.82;;;;;;;;;;5030789;28;20528;-66
2020/12/18 14:18:22;;;;;;;10.75;6.75;;;;;;;;;;5040212;28;20289;-66
2020/12/18 14:20:48;;;;;;;9.63;6.40;;;;;;;;;;5045219;28;20234;-67
2020/12/18 14:23:15;;;;;;;9.35;6.70;;;;;;;;;;5038778;28;20701;-66
2020/12/18 14:25:40;;;;;;;10.40;6.85;;;;;;;;;;5039127;28;20203;-66
2020/12/18 14:28:05;;;;;;;7.32;5.85;;;;;;;;;;5039960;28;20229;-65
2020/12/18 14:30:31;;;;;;;7.78;6.85;;;;;;;;;;5040713;28;20231;-67
2020/12/18 14:32:56;;;;;;;9.63;6.68;;;;;;;;;;5039435;28;20236;-67
2020/12/18 14:35:21;;;;;;;7.72;6.10;;;;;;;;;;5039225;28;20294;-67